ADDS METAR Data INFO
IDs: Format: Raw Decoded Include TAF

Data at: 1146 UTC 17 Jul 2018

METAR for:KPGD (Punta Gorda/Charlott, FL, US)
Text:KPGD 171053Z 00000KT 10SM CLR 27/24 A3010 RMK AO2 LTG DSNT S AND SW SLP193 TCU DSNT S-SW MOV UNKN T02670239
Temperature: 26.7°C ( 80°F)
Dewpoint: 23.9°C ( 75°F) [RH = 85%]
Pressure (altimeter):30.10 inches Hg (1019.4 mb) [Sea level pressure: 1019.3 mb]
Winds:calm
Visibility:10 or more sm (16+ km)
Ceiling:at least 12,000 feet AGL
Clouds:sky clear below 12,000 feet AGL